Terminal Aerodrome Forecast
Issued by NWS

Home | Current Version | Previous Version | Text Only | Print | Product List | Glossary On
Versions: 1 2 3 4 5 6 7 8 9 10 11 12
000
FTUS42 KMLB 201100
TAFSUA
TAF
KSUA 201130Z 2012/2112 00000KT P6SM BKN040 BKN250
     FM201500 17007KT P6SM SCT100 BKN250
     FM201800 13008KT P6SM SCT080 BKN250
     FM210400 18003KT P6SM SCT060 OVC120=

USA.gov is the U.S. government's official web portal to all federal, state and local government web resources and services.